Kaszuby — C6XD6 — position and weather

sailwx.info

Track history (hours):
 
Tides and Currents Weather Stations Pressure Air Temp Water Temp Dewpoint Dewpoint Depression Visibility Wind Speed Wind Dir Waves Ship Positions

Kaszuby

Last reported at 2017-Oct-14 09:41 UTC. Time now 2017-Oct-20 20:06 UTC.
Position N 54°41' W 001°06'.

Length 190 m; draft 10 m.

Type: Cargo ship. MMSI: 311005600.

Date/timePositionNaut miles runAvg speedWind from/ knotsBaromVisibWave heightAir tempDewpointWater temp
2017-Oct-14 09:41N 54°41' W 001°06'2 8.8
2017-Oct-14 09:30N 54°41' W 001°03'3 5.8
2017-Oct-14 09:01N 54°42' W 000°58'1 1.2
2017-Oct-14 08:31N 54°41' W 000°59'2 3.5
2017-Oct-14 08:00N 54°41' W 000°55'3 6.0
2017-Oct-14 07:30N 54°40' W 000°51'13 6.7
2017-Oct-14 05:37N 54°35' W 000°31'1 7.1
2017-Oct-14 05:30N 54°34' W 000°29'3 7.1
2017-Oct-14 05:00N 54°33' W 000°24'4 7.2
2017-Oct-14 04:30N 54°31' W 000°18'4 7.4
2017-Oct-14 04:00N 54°30' W 000°13'4 7.3
2017-Oct-14 03:30N 54°28' W 000°07'4 8.6
2017-Oct-14 03:00N 54°26' W 000°01'611.3
2017-Oct-14 02:30N 54°23' E 000°08'511.0
2017-Oct-14 02:00N 54°21' E 000°16'510.7
2017-Oct-14 01:30N 54°18' E 000°25'510.6
2017-Oct-14 01:00N 54°16' E 000°33'63 9.8
2017-Oct-13 18:36N 53°24' E 001°33'211.6
2017-Oct-13 18:27N 53°22' E 001°33'611.4
2017-Oct-13 17:54N 53°17' E 001°39'511.3
2017-Oct-13 17:29N 53°13' E 001°43'511.1
2017-Oct-13 17:00N 53°09' E 001°49'510.5
2017-Oct-13 16:30N 53°06' E 001°55'5 9.9
2017-Oct-13 16:00N 53°03' E 002°02'5 9.6
2017-Oct-13 15:30N 53°00' E 002°09'5 9.5
2017-Oct-13 15:00N 52°57' E 002°15'5 9.5
2017-Oct-13 14:26N 52°53' E 002°20'7010.6
2017-Oct-13 07:48N 51°43' E 002°29'412.6
2017-Oct-13 07:28N 51°39' E 002°25'712.7
2017-Oct-13 06:56N 51°33' E 002°19'512.7
2017-Oct-13 06:30N 51°29' E 002°14'612.5
2017-Oct-13 06:00N 51°23' E 002°11'612.4
2017-Oct-13 05:30N 51°18' E 002°06'612.3
2017-Oct-13 05:00N 51°13' E 001°60'612.6
2017-Oct-13 04:30N 51°10' E 001°51'612.3
2017-Oct-13 04:00N 51°06' E 001°43'611.9
2017-Oct-13 03:30N 51°02' E 001°36'611.5
2017-Oct-13 03:00N 50°58' E 001°31'510.8
2017-Oct-13 02:30N 50°53' E 001°27'510.5
2017-Oct-13 02:00N 50°48' E 001°24'510.3
2017-Oct-13 01:30N 50°43' E 001°21'710.6
2017-Oct-13 00:48N 50°38' E 001°13'310.5
2017-Oct-13 00:30N 50°36' E 001°10'510.5
2017-Oct-13 00:00N 50°32' E 001°04'510.3
2017-Oct-12 23:30N 50°29' E 000°58'510.4
2017-Oct-12 22:59N 50°27' E 000°50'610.5
2017-Oct-12 22:22N 50°25' E 000°40'610.3
2017-Oct-12 21:45N 50°24' E 000°30'310.2
2017-Oct-12 21:27N 50°23' E 000°25'510.0
2017-Oct-12 20:58N 50°22' E 000°18'5 9.9
2017-Oct-12 20:30N 50°21' E 000°11'5 9.9
2017-Oct-12 20:00N 50°20' E 000°03'5 9.9
2017-Oct-12 19:30N 50°19' W 000°04'6 9.8
2017-Oct-12 18:55N 50°17' W 000°13'4 9.7
2017-Oct-12 18:30N 50°16' W 000°19'9212.0
2017-Oct-12 10:52N 49°52' W 002°37'512.5
2017-Oct-12 10:29N 49°50' W 002°44'612.2
2017-Oct-12 10:00N 49°49' W 002°52'611.9
2017-Oct-12 09:30N 49°46' W 003°01'611.7
2017-Oct-12 09:01N 49°43' W 003°08'611.5
2017-Oct-12 08:30N 49°40' W 003°16'611.4
2017-Oct-12 08:00N 49°37' W 003°24'611.3
2017-Oct-12 07:30N 49°35' W 003°32'4110.6
2017-Oct-12 03:34N 49°14' W 004°27'35 9.8
2017-Oct-11 23:59N 48°56' W 005°13'610.4
2017-Oct-11 23:25N 48°53' W 005°20'610.5
2017-Oct-11 22:54N 48°50' W 005°27'410.6
2017-Oct-11 22:30N 48°48' W 005°32'43 9.6
2017-Oct-11 18:00N 48°11' W 006°05'4 7.8
2017-Oct-11 17:30N 48°07' W 006°08'37512.9
2017-Oct-10 12:32N 42°26' W 009°48'013.3
2017-Oct-10 12:30N 42°25' W 009°48'712.9
2017-Oct-10 11:59N 42°19' W 009°49'1413.0
2017-Oct-10 10:55N 42°05' W 009°49'1213.1
2017-Oct-10 09:58N 41°52' W 009°49'613.2
2017-Oct-10 09:30N 41°46' W 009°49'713.4
2017-Oct-10 09:00N 41°40' W 009°49'712.8
2017-Oct-10 08:30N 41°33' W 009°49'612.5
2017-Oct-10 08:00N 41°27' W 009°49'612.5
2017-Oct-10 07:29N 41°21' W 009°49'612.6
2017-Oct-10 07:00N 41°14' W 009°49'612.7
2017-Oct-10 06:30N 41°08' W 009°49'712.7
2017-Oct-10 05:59N 41°01' W 009°49'612.8
2017-Oct-10 05:29N 40°55' W 009°50'612.8
2017-Oct-10 05:00N 40°49' W 009°50'612.9
2017-Oct-10 04:30N 40°43' W 009°50'612.9
2017-Oct-10 04:00N 40°36' W 009°50'713.1
2017-Oct-10 03:30N 40°29' W 009°50'713.2
2017-Oct-10 03:00N 40°23' W 009°50'713.4
2017-Oct-10 02:30N 40°16' W 009°50'713.1
2017-Oct-10 02:00N 40°10' W 009°51'612.9
2017-Oct-10 01:30N 40°03' W 009°51'612.9
2017-Oct-10 01:00N 39°57' W 009°51'612.7
2017-Oct-10 00:30N 39°50' W 009°52'612.8
2017-Oct-10 00:00N 39°44' W 009°52'613.0
2017-Oct-09 23:30N 39°38' W 009°51'713.0
2017-Oct-09 23:00N 39°31' W 009°51'612.6
2017-Oct-09 22:30N 39°25' W 009°52'712.9
2017-Oct-09 22:00N 39°18' W 009°52'612.7
2017-Oct-09 21:30N 39°12' W 009°53'713.0
2017-Oct-09 21:00N 39°05' W 009°53'612.9
2017-Oct-09 20:30N 38°59' W 009°53'612.5
2017-Oct-09 20:00N 38°53' W 009°52'612.8
2017-Oct-09 19:30N 38°46' W 009°52'612.9
2017-Oct-09 19:00N 38°40' W 009°50'611.5
2017-Oct-09 18:30N 38°38' W 009°43'713.1
2017-Oct-09 18:00N 38°39' W 009°35'611.5
2017-Oct-09 17:30N 38°39' W 009°27'2 3.4
2017-Oct-09 16:56N 38°40' W 009°25'0 0.1
2017-Oct-09 16:29N 38°40' W 009°25'0 0.0
2017-Oct-09 15:59N 38°40' W 009°25'0 0.0
2017-Oct-09 15:26N 38°40' W 009°25'0 0.2
2017-Oct-09 15:00N 38°40' W 009°25'0 1.0
2017-Oct-09 14:30N 38°40' W 009°26'2 4.9
2017-Oct-09 14:00N 38°38' W 009°28'3 6.1
2017-Oct-09 13:30N 38°36' W 009°30'510.9
2017-Oct-09 13:00N 38°31' W 009°35'511.0
2017-Oct-09 12:30N 38°26' W 009°37'611.8
2017-Oct-09 12:00N 38°20' W 009°38'612.9
2017-Oct-09 11:30N 38°14' W 009°36'713.1
2017-Oct-09 11:00N 38°08' W 009°34'713.3
2017-Oct-09 10:30N 38°01' W 009°33'713.2
2017-Oct-09 10:00N 37°55' W 009°31'713.2
2017-Oct-09 09:30N 37°48' W 009°30'713.0
2017-Oct-09 09:00N 37°42' W 009°28'613.0
2017-Oct-09 08:30N 37°35' W 009°27'613.0
2017-Oct-09 08:00N 37°29' W 009°25'713.7
2017-Oct-09 07:30N 37°22' W 009°24'713.2
2017-Oct-09 07:00N 37°16' W 009°23'612.9
2017-Oct-09 06:30N 37°09' W 009°22'612.9
2017-Oct-09 06:00N 37°03' W 009°21'612.8
2017-Oct-09 05:30N 36°57' W 009°19'612.3
2017-Oct-09 05:00N 36°51' W 009°16'713.1
2017-Oct-09 04:30N 36°46' W 009°11'713.2
2017-Oct-09 04:00N 36°43' W 009°04'713.1
2017-Oct-09 03:30N 36°41' W 008°56'612.9
2017-Oct-09 03:00N 36°39' W 008°48'612.8
2017-Oct-09 02:30N 36°37' W 008°41'612.7
2017-Oct-09 02:00N 36°35' W 008°33'713.6
2017-Oct-09 01:30N 36°33' W 008°25'713.2
2017-Oct-09 01:00N 36°31' W 008°17'713.3
2017-Oct-09 00:30N 36°29' W 008°09'713.3
2017-Oct-09 00:00N 36°26' W 008°01'912.9
2017-Oct-08 23:18N 36°24' W 007°51'413.1
2017-Oct-08 23:00N 36°23' W 007°46'713.1
2017-Oct-08 22:30N 36°20' W 007°38'613.1
2017-Oct-08 22:00N 36°18' W 007°31'1013.1
2017-Oct-08 21:15N 36°15' W 007°19'413.3
2017-Oct-08 20:58N 36°14' W 007°15'1513.2
2017-Oct-08 19:51N 36°09' W 006°57'513.1
2017-Oct-08 19:26N 36°07' W 006°51'813.0
2017-Oct-08 18:50N 36°05' W 006°42'412.8
2017-Oct-08 18:29N 36°03' W 006°37'712.6
2017-Oct-08 17:54N 36°01' W 006°28'65 1.8
2017-Oct-07 06:20N 36°06' W 005°08'0 0.9
2017-Oct-07 06:00N 36°07' W 005°08'0 0.7
2017-Oct-07 05:30N 36°07' W 005°08'0 0.4
2017-Oct-07 05:00N 36°07' W 005°08'0 0.5
2017-Oct-07 04:30N 36°07' W 005°08'0 0.3
2017-Oct-07 04:00N 36°07' W 005°08'0 0.3
2017-Oct-07 03:30N 36°08' W 005°08'0 0.8
2017-Oct-07 03:00N 36°08' W 005°08'2 4.7
2017-Oct-07 02:30N 36°06' W 005°06'612.3
2017-Oct-07 01:59N 36°07' W 004°58'20612.4
2017-Oct-06 09:22N 36°42' W 000°45'5513.1
2017-Oct-06 05:11N 36°54' E 000°21'1112.9
2017-Oct-06 04:18N 36°57' E 000°35'413.1
2017-Oct-06 03:58N 36°58' E 000°40'713.3
2017-Oct-06 03:27N 36°60' E 000°49'713.4
2017-Oct-06 02:56N 37°01' E 000°57'1213.5
2017-Oct-06 02:04N 37°03' E 001°12'213.4
2017-Oct-06 01:54N 37°04' E 001°14'  
Track history (hours):
 
Tides and Currents Weather Stations Pressure Air Temp Water Temp Dewpoint Dewpoint Depression Visibility Wind Speed Wind Dir Waves Ship Positions

Kaszuby

Last reported at 2017-Oct-14 09:41 UTC. Time now 2017-Oct-20 20:06 UTC.
Position N 54°41' W 001°06'.

Length 190 m; draft 10 m.

Type: Cargo ship. MMSI: 311005600.

Date/timePositionNaut miles runAvg speedWind from/ knotsBaromVisibWave heightAir tempDewpointWater temp
2017-Oct-14 09:41N 54°41' W 001°06'2 8.8
2017-Oct-14 09:30N 54°41' W 001°03'3 5.8
2017-Oct-14 09:01N 54°42' W 000°58'1 1.2
2017-Oct-14 08:31N 54°41' W 000°59'2 3.5
2017-Oct-14 08:00N 54°41' W 000°55'3 6.0
2017-Oct-14 07:30N 54°40' W 000°51'13 6.7
2017-Oct-14 05:37N 54°35' W 000°31'1 7.1
2017-Oct-14 05:30N 54°34' W 000°29'3 7.1
2017-Oct-14 05:00N 54°33' W 000°24'4 7.2
2017-Oct-14 04:30N 54°31' W 000°18'4 7.4
2017-Oct-14 04:00N 54°30' W 000°13'4 7.3
2017-Oct-14 03:30N 54°28' W 000°07'4 8.6
2017-Oct-14 03:00N 54°26' W 000°01'611.3
2017-Oct-14 02:30N 54°23' E 000°08'511.0
2017-Oct-14 02:00N 54°21' E 000°16'510.7
2017-Oct-14 01:30N 54°18' E 000°25'510.6
2017-Oct-14 01:00N 54°16' E 000°33'63 9.8
2017-Oct-13 18:36N 53°24' E 001°33'211.6
2017-Oct-13 18:27N 53°22' E 001°33'611.4
2017-Oct-13 17:54N 53°17' E 001°39'511.3
2017-Oct-13 17:29N 53°13' E 001°43'511.1
2017-Oct-13 17:00N 53°09' E 001°49'510.5
2017-Oct-13 16:30N 53°06' E 001°55'5 9.9
2017-Oct-13 16:00N 53°03' E 002°02'5 9.6
2017-Oct-13 15:30N 53°00' E 002°09'5 9.5
2017-Oct-13 15:00N 52°57' E 002°15'5 9.5
2017-Oct-13 14:26N 52°53' E 002°20'7010.6
2017-Oct-13 07:48N 51°43' E 002°29'412.6
2017-Oct-13 07:28N 51°39' E 002°25'712.7
2017-Oct-13 06:56N 51°33' E 002°19'512.7
2017-Oct-13 06:30N 51°29' E 002°14'612.5
2017-Oct-13 06:00N 51°23' E 002°11'612.4
2017-Oct-13 05:30N 51°18' E 002°06'612.3
2017-Oct-13 05:00N 51°13' E 001°60'612.6
2017-Oct-13 04:30N 51°10' E 001°51'612.3
2017-Oct-13 04:00N 51°06' E 001°43'611.9
2017-Oct-13 03:30N 51°02' E 001°36'611.5
2017-Oct-13 03:00N 50°58' E 001°31'510.8
2017-Oct-13 02:30N 50°53' E 001°27'510.5
2017-Oct-13 02:00N 50°48' E 001°24'510.3
2017-Oct-13 01:30N 50°43' E 001°21'710.6
2017-Oct-13 00:48N 50°38' E 001°13'310.5
2017-Oct-13 00:30N 50°36' E 001°10'510.5
2017-Oct-13 00:00N 50°32' E 001°04'510.3
2017-Oct-12 23:30N 50°29' E 000°58'510.4
2017-Oct-12 22:59N 50°27' E 000°50'610.5
2017-Oct-12 22:22N 50°25' E 000°40'610.3
2017-Oct-12 21:45N 50°24' E 000°30'310.2
2017-Oct-12 21:27N 50°23' E 000°25'510.0
2017-Oct-12 20:58N 50°22' E 000°18'5 9.9
2017-Oct-12 20:30N 50°21' E 000°11'5 9.9
2017-Oct-12 20:00N 50°20' E 000°03'5 9.9
2017-Oct-12 19:30N 50°19' W 000°04'6 9.8
2017-Oct-12 18:55N 50°17' W 000°13'4 9.7
2017-Oct-12 18:30N 50°16' W 000°19'9212.0
2017-Oct-12 10:52N 49°52' W 002°37'512.5
2017-Oct-12 10:29N 49°50' W 002°44'612.2
2017-Oct-12 10:00N 49°49' W 002°52'611.9
2017-Oct-12 09:30N 49°46' W 003°01'611.7
2017-Oct-12 09:01N 49°43' W 003°08'611.5
2017-Oct-12 08:30N 49°40' W 003°16'611.4
2017-Oct-12 08:00N 49°37' W 003°24'611.3
2017-Oct-12 07:30N 49°35' W 003°32'4110.6
2017-Oct-12 03:34N 49°14' W 004°27'35 9.8
2017-Oct-11 23:59N 48°56' W 005°13'610.4
2017-Oct-11 23:25N 48°53' W 005°20'610.5
2017-Oct-11 22:54N 48°50' W 005°27'410.6
2017-Oct-11 22:30N 48°48' W 005°32'43 9.6
2017-Oct-11 18:00N 48°11' W 006°05'4 7.8
2017-Oct-11 17:30N 48°07' W 006°08'37512.9
2017-Oct-10 12:32N 42°26' W 009°48'013.3
2017-Oct-10 12:30N 42°25' W 009°48'712.9
2017-Oct-10 11:59N 42°19' W 009°49'1413.0
2017-Oct-10 10:55N 42°05' W 009°49'1213.1
2017-Oct-10 09:58N 41°52' W 009°49'613.2
2017-Oct-10 09:30N 41°46' W 009°49'713.4
2017-Oct-10 09:00N 41°40' W 009°49'712.8
2017-Oct-10 08:30N 41°33' W 009°49'612.5
2017-Oct-10 08:00N 41°27' W 009°49'612.5
2017-Oct-10 07:29N 41°21' W 009°49'612.6
2017-Oct-10 07:00N 41°14' W 009°49'612.7
2017-Oct-10 06:30N 41°08' W 009°49'712.7
2017-Oct-10 05:59N 41°01' W 009°49'612.8
2017-Oct-10 05:29N 40°55' W 009°50'612.8
2017-Oct-10 05:00N 40°49' W 009°50'612.9
2017-Oct-10 04:30N 40°43' W 009°50'612.9
2017-Oct-10 04:00N 40°36' W 009°50'713.1
2017-Oct-10 03:30N 40°29' W 009°50'713.2
2017-Oct-10 03:00N 40°23' W 009°50'713.4
2017-Oct-10 02:30N 40°16' W 009°50'713.1
2017-Oct-10 02:00N 40°10' W 009°51'612.9
2017-Oct-10 01:30N 40°03' W 009°51'612.9
2017-Oct-10 01:00N 39°57' W 009°51'612.7
2017-Oct-10 00:30N 39°50' W 009°52'612.8
2017-Oct-10 00:00N 39°44' W 009°52'613.0
2017-Oct-09 23:30N 39°38' W 009°51'713.0
2017-Oct-09 23:00N 39°31' W 009°51'612.6
2017-Oct-09 22:30N 39°25' W 009°52'712.9
2017-Oct-09 22:00N 39°18' W 009°52'612.7
2017-Oct-09 21:30N 39°12' W 009°53'713.0
2017-Oct-09 21:00N 39°05' W 009°53'612.9
2017-Oct-09 20:30N 38°59' W 009°53'612.5
2017-Oct-09 20:00N 38°53' W 009°52'612.8
2017-Oct-09 19:30N 38°46' W 009°52'612.9
2017-Oct-09 19:00N 38°40' W 009°50'611.5
2017-Oct-09 18:30N 38°38' W 009°43'713.1
2017-Oct-09 18:00N 38°39' W 009°35'611.5
2017-Oct-09 17:30N 38°39' W 009°27'2 3.4
2017-Oct-09 16:56N 38°40' W 009°25'0 0.1
2017-Oct-09 16:29N 38°40' W 009°25'0 0.0
2017-Oct-09 15:59N 38°40' W 009°25'0 0.0
2017-Oct-09 15:26N 38°40' W 009°25'0 0.2
2017-Oct-09 15:00N 38°40' W 009°25'0 1.0
2017-Oct-09 14:30N 38°40' W 009°26'2 4.9
2017-Oct-09 14:00N 38°38' W 009°28'3 6.1
2017-Oct-09 13:30N 38°36' W 009°30'510.9
2017-Oct-09 13:00N 38°31' W 009°35'511.0
2017-Oct-09 12:30N 38°26' W 009°37'611.8
2017-Oct-09 12:00N 38°20' W 009°38'612.9
2017-Oct-09 11:30N 38°14' W 009°36'713.1
2017-Oct-09 11:00N 38°08' W 009°34'713.3
2017-Oct-09 10:30N 38°01' W 009°33'713.2
2017-Oct-09 10:00N 37°55' W 009°31'713.2
2017-Oct-09 09:30N 37°48' W 009°30'713.0
2017-Oct-09 09:00N 37°42' W 009°28'613.0
2017-Oct-09 08:30N 37°35' W 009°27'613.0
2017-Oct-09 08:00N 37°29' W 009°25'713.7
2017-Oct-09 07:30N 37°22' W 009°24'713.2
2017-Oct-09 07:00N 37°16' W 009°23'612.9
2017-Oct-09 06:30N 37°09' W 009°22'612.9
2017-Oct-09 06:00N 37°03' W 009°21'612.8
2017-Oct-09 05:30N 36°57' W 009°19'612.3
2017-Oct-09 05:00N 36°51' W 009°16'713.1
2017-Oct-09 04:30N 36°46' W 009°11'713.2
2017-Oct-09 04:00N 36°43' W 009°04'713.1
2017-Oct-09 03:30N 36°41' W 008°56'612.9
2017-Oct-09 03:00N 36°39' W 008°48'612.8
2017-Oct-09 02:30N 36°37' W 008°41'612.7
2017-Oct-09 02:00N 36°35' W 008°33'713.6
2017-Oct-09 01:30N 36°33' W 008°25'713.2
2017-Oct-09 01:00N 36°31' W 008°17'713.3
2017-Oct-09 00:30N 36°29' W 008°09'713.3
2017-Oct-09 00:00N 36°26' W 008°01'912.9
2017-Oct-08 23:18N 36°24' W 007°51'413.1
2017-Oct-08 23:00N 36°23' W 007°46'713.1
2017-Oct-08 22:30N 36°20' W 007°38'613.1
2017-Oct-08 22:00N 36°18' W 007°31'1013.1
2017-Oct-08 21:15N 36°15' W 007°19'413.3
2017-Oct-08 20:58N 36°14' W 007°15'1513.2
2017-Oct-08 19:51N 36°09' W 006°57'513.1
2017-Oct-08 19:26N 36°07' W 006°51'813.0
2017-Oct-08 18:50N 36°05' W 006°42'412.8
2017-Oct-08 18:29N 36°03' W 006°37'712.6
2017-Oct-08 17:54N 36°01' W 006°28'65 1.8
2017-Oct-07 06:20N 36°06' W 005°08'0 0.9
2017-Oct-07 06:00N 36°07' W 005°08'0 0.7
2017-Oct-07 05:30N 36°07' W 005°08'0 0.4
2017-Oct-07 05:00N 36°07' W 005°08'0 0.5
2017-Oct-07 04:30N 36°07' W 005°08'0 0.3
2017-Oct-07 04:00N 36°07' W 005°08'0 0.3
2017-Oct-07 03:30N 36°08' W 005°08'0 0.8
2017-Oct-07 03:00N 36°08' W 005°08'2 4.7
2017-Oct-07 02:30N 36°06' W 005°06'612.3
2017-Oct-07 01:59N 36°07' W 004°58'20612.4
2017-Oct-06 09:22N 36°42' W 000°45'5513.1
2017-Oct-06 05:11N 36°54' E 000°21'1112.9
2017-Oct-06 04:18N 36°57' E 000°35'413.1
2017-Oct-06 03:58N 36°58' E 000°40'713.3
2017-Oct-06 03:27N 36°60' E 000°49'713.4
2017-Oct-06 02:56N 37°01' E 000°57'1213.5
2017-Oct-06 02:04N 37°03' E 001°12'213.4
2017-Oct-06 01:54N 37°04' E 001°14'  

Dump ship's entire track history